Time;durP1;ratioP1;P1;durP2;ratioP2;P2;SDS_P1;SDS_P2;PMS_P1;PMS_P2;Temp;Humidity;BMP_temperature;BMP_pressure;BME280_temperature;BME280_humidity;BME280_pressure;Samples;Min_cycle;Max_cycle;Signal;HPM_P1;HPM_P2
2021/07/11 00:00:49;;;;;;;14.43;11.00;;;18.70;85.70;;;;;;3532536;40;20041;-67
2021/07/11 00:03:15;;;;;;;14.35;11.40;;;18.70;85.40;;;;;;3531926;40;20045;-67
2021/07/11 00:05:42;;;;;;;11.68;9.60;;;18.70;85.60;;;;;;3533290;40;20042;-68
2021/07/11 00:08:08;;;;;;;13.20;10.63;;;18.70;86.30;;;;;;3533174;40;20031;-67
2021/07/11 00:10:34;;;;;;;13.82;10.32;;;18.70;85.90;;;;;;3530335;40;20054;-67
2021/07/11 00:13:00;;;;;;;13.02;11.05;;;18.70;86.00;;;;;;3531225;40;20027;-67
2021/07/11 00:15:27;;;;;;;12.48;10.25;;;18.70;85.70;;;;;;3532115;40;20027;-68
2021/07/11 00:17:54;;;;;;;12.68;11.00;;;18.70;85.70;;;;;;3531104;40;20091;-69
2021/07/11 00:20:24;;;;;;;12.13;10.32;;;18.60;85.80;;;;;;3533709;40;20034;-69
2021/07/11 00:22:50;;;;;;;13.23;10.63;;;18.60;86.00;;;;;;3533215;40;20019;-69
2021/07/11 00:25:17;;;;;;;15.45;9.77;;;18.50;86.10;;;;;;3533127;40;20049;-70
2021/07/11 00:27:44;;;;;;;12.93;10.90;;;18.50;86.00;;;;;;3532889;40;20839;-67
2021/07/11 00:30:11;;;;;;;11.85;9.82;;;18.50;85.90;;;;;;3532744;40;20164;-67
2021/07/11 00:32:38;;;;;;;14.20;9.88;;;18.50;86.00;;;;;;3530291;40;20041;-68
2021/07/11 00:35:04;;;;;;;13.30;9.95;;;18.40;85.80;;;;;;3531892;40;20027;-67
2021/07/11 00:37:30;;;;;;;16.27;10.85;;;18.40;85.90;;;;;;3532801;40;20038;-67
2021/07/11 00:39:56;;;;;;;14.82;10.55;;;18.40;85.60;;;;;;3531699;40;20466;-67
2021/07/11 00:42:25;;;;;;;13.95;9.98;;;18.40;85.40;;;;;;3530436;40;20043;-71
2021/07/11 00:44:51;;;;;;;13.57;10.75;;;18.40;85.60;;;;;;3532266;40;20092;-70
2021/07/11 00:47:18;;;;;;;13.52;10.98;;;18.40;84.90;;;;;;3532456;40;20047;-70
2021/07/11 00:49:46;;;;;;;12.77;10.63;;;18.40;85.10;;;;;;3530216;40;20046;-70
2021/07/11 00:52:14;;;;;;;11.77;9.45;;;18.40;84.90;;;;;;3532553;40;20035;-70
2021/07/11 00:54:41;;;;;;;11.40;9.63;;;18.40;85.00;;;;;;3523225;40;20839;-68
2021/07/11 00:57:10;;;;;;;15.30;9.98;;;18.40;85.30;;;;;;3530142;40;20055;-68
2021/07/11 00:59:39;;;;;;;16.08;9.82;;;18.40;85.40;;;;;;3533318;40;20052;-68
2021/07/11 01:02:17;;;;;;;14.27;9.77;;;18.40;85.40;;;;;;3531108;40;20064;-68
2021/07/11 01:04:59;;;;;;;13.85;9.55;;;18.30;85.30;;;;;;3531562;40;20036;-68
2021/07/11 01:07:49;;;;;;;11.68;9.50;;;18.30;85.30;;;;;;3533309;40;20046;-68
2021/07/11 01:10:37;;;;;;;14.75;10.02;;;18.20;85.70;;;;;;3538746;40;20035;-69
2021/07/11 01:13:04;;;;;;;12.57;9.98;;;18.30;84.60;;;;;;3531170;40;20039;-70
2021/07/11 01:15:35;;;;;;;12.13;9.45;;;18.30;84.90;;;;;;3530380;40;20098;-68
2021/07/11 01:18:02;;;;;;;10.63;9.52;;;18.20;85.30;;;;;;3529874;40;20125;-68
2021/07/11 01:20:46;;;;;;;13.07;9.68;;;18.20;84.70;;;;;;3524398;40;20043;-68
2021/07/11 01:23:30;;;;;;;13.32;9.48;;;18.20;85.30;;;;;;3530800;40;20062;-68
2021/07/11 01:25:57;;;;;;;13.15;10.10;;;18.20;85.40;;;;;;3531879;40;20045;-68
2021/07/11 01:28:24;;;;;;;13.38;10.63;;;18.20;85.70;;;;;;3533096;40;20038;-70
2021/07/11 01:30:52;;;;;;;10.85;9.60;;;18.20;85.40;;;;;;3530603;40;20049;-70
2021/07/11 01:33:20;;;;;;;12.02;9.55;;;18.20;85.40;;;;;;3533427;40;20592;-70
2021/07/11 01:35:47;;;;;;;12.60;10.02;;;18.20;85.60;;;;;;3534612;40;20042;-70
2021/07/11 01:38:14;;;;;;;11.95;10.65;;;18.20;85.50;;;;;;3533770;40;20053;-70
2021/07/11 01:40:43;;;;;;;11.30;9.57;;;18.10;85.60;;;;;;3531508;40;20049;-70
2021/07/11 01:43:15;;;;;;;12.88;9.85;;;18.10;85.50;;;;;;3531962;40;20404;-70
2021/07/11 01:45:42;;;;;;;13.02;9.68;;;18.10;85.60;;;;;;3533223;40;20034;-70
2021/07/11 01:48:08;;;;;;;12.88;9.27;;;18.00;85.80;;;;;;3532367;40;20034;-70
2021/07/11 01:50:34;;;;;;;10.90;9.35;;;18.00;85.90;;;;;;3532849;40;20105;-70
2021/07/11 01:53:01;;;;;;;14.25;10.30;;;18.00;86.20;;;;;;3531721;40;20073;-70
2021/07/11 01:55:28;;;;;;;11.02;9.85;;;18.00;86.30;;;;;;3533330;40;20046;-70
2021/07/11 01:57:55;;;;;;;11.13;9.50;;;17.90;86.20;;;;;;3531901;40;20038;-70
2021/07/11 02:00:22;;;;;;;16.50;9.52;;;17.90;86.30;;;;;;3532182;40;20335;-70
2021/07/11 02:02:50;;;;;;;11.98;10.65;;;17.90;86.40;;;;;;3533130;40;20472;-70
2021/07/11 02:05:36;;;;;;;13.00;9.95;;;17.90;86.40;;;;;;3532563;40;20043;-70
2021/07/11 02:08:06;;;;;;;10.25;9.02;;;17.80;86.40;;;;;;3525144;40;20050;-70
2021/07/11 02:10:34;;;;;;;11.82;9.48;;;17.80;86.60;;;;;;3531053;40;20043;-70
2021/07/11 02:13:24;;;;;;;12.85;9.80;;;17.70;86.70;;;;;;3531477;40;20071;-70
2021/07/11 02:15:57;;;;;;;11.68;9.65;;;17.70;86.90;;;;;;3533039;40;20152;-70
2021/07/11 02:18:27;;;;;;;12.45;10.38;;;17.60;87.20;;;;;;3531909;40;20090;-70
2021/07/11 02:20:55;;;;;;;12.65;10.48;;;17.60;87.70;;;;;;3530818;40;20027;-70
2021/07/11 02:23:24;;;;;;;12.73;9.80;;;17.60;87.70;;;;;;3528424;40;20057;-70
2021/07/11 02:25:52;;;;;;;12.88;10.32;;;17.60;88.00;;;;;;3531945;40;20039;-70
2021/07/11 02:28:20;;;;;;;17.05;10.50;;;17.60;88.20;;;;;;3531138;40;20588;-70
2021/07/11 02:30:58;;;;;;;14.90;9.95;;;17.60;88.00;;;;;;3530854;40;20602;-70
2021/07/11 02:33:36;;;;;;;11.02;9.80;;;17.60;87.90;;;;;;3531089;40;20531;-70
2021/07/11 02:36:05;;;;;;;12.32;9.52;;;17.60;88.00;;;;;;3530925;40;20031;-70
2021/07/11 02:38:45;;;;;;;14.75;10.65;;;17.60;88.10;;;;;;3532194;40;20079;-70
2021/07/11 02:41:14;;;;;;;13.95;10.20;;;17.60;88.30;;;;;;3531131;40;20066;-70
2021/07/11 02:43:43;;;;;;;14.45;10.35;;;17.60;88.10;;;;;;3530307;40;20034;-69
2021/07/11 02:46:16;;;;;;;11.55;9.43;;;17.60;87.90;;;;;;3532237;40;20752;-70
2021/07/11 02:48:43;;;;;;;16.33;10.30;;;17.60;87.80;;;;;;3530991;40;20137;-70
2021/07/11 02:51:14;;;;;;;14.65;9.82;;;17.60;87.70;;;;;;3529653;40;20094;-70
2021/07/11 02:53:45;;;;;;;11.82;9.82;;;17.60;87.80;;;;;;3532014;40;20041;-70
2021/07/11 02:56:17;;;;;;;12.68;9.88;;;17.70;87.60;;;;;;3531706;40;20132;-70
2021/07/11 02:58:46;;;;;;;11.88;9.60;;;17.60;87.10;;;;;;3532110;40;20812;-70
2021/07/11 03:01:13;;;;;;;11.65;9.13;;;17.60;87.20;;;;;;3531121;40;20052;-70
2021/07/11 03:03:42;;;;;;;11.20;9.35;;;17.60;87.20;;;;;;3533522;40;20050;-70
2021/07/11 03:06:08;;;;;;;10.20;9.07;;;17.70;87.40;;;;;;3530210;40;20954;-70
2021/07/11 03:08:33;;;;;;;11.75;8.82;;;17.60;87.50;;;;;;3531409;40;20034;-70
2021/07/11 03:11:08;;;;;;;12.95;9.68;;;17.70;87.90;;;;;;3531786;40;20042;-70
2021/07/11 03:13:35;;;;;;;11.38;9.27;;;17.70;87.70;;;;;;3530335;40;20147;-70
2021/07/11 03:16:04;;;;;;;13.77;9.55;;;17.70;87.60;;;;;;3531051;40;20495;-70
2021/07/11 03:18:36;;;;;;;16.42;10.32;;;17.70;87.50;;;;;;3530777;40;20149;-70
2021/07/11 03:21:05;;;;;;;15.10;10.00;;;17.70;87.10;;;;;;3532455;40;20023;-70
2021/07/11 03:23:34;;;;;;;15.43;9.55;;;17.70;86.80;;;;;;3530504;40;20095;-70
2021/07/11 03:26:00;;;;;;;11.20;9.85;;;17.80;87.10;;;;;;3533284;40;20088;-70
2021/07/11 03:28:29;;;;;;;12.15;10.32;;;17.80;86.40;;;;;;3529695;40;20034;-68
2021/07/11 03:30:56;;;;;;;19.83;9.77;;;17.80;86.20;;;;;;3530994;40;20312;-67
2021/07/11 03:33:26;;;;;;;10.77;8.65;;;17.80;86.20;;;;;;3530692;40;20035;-68
2021/07/11 03:35:58;;;;;;;11.20;9.27;;;17.80;86.40;;;;;;3533706;40;20038;-68
2021/07/11 03:38:36;;;;;;;12.50;9.57;;;17.80;86.30;;;;;;3531906;40;20152;-67
2021/07/11 03:41:03;;;;;;;15.13;9.27;;;17.80;86.50;;;;;;3529551;40;20807;-68
2021/07/11 03:43:36;;;;;;;13.52;9.77;;;17.80;87.20;;;;;;3532768;40;20038;-67
2021/07/11 03:46:06;;;;;;;10.52;9.25;;;17.90;86.50;;;;;;3531913;40;20120;-68
2021/07/11 03:48:40;;;;;;;13.10;10.13;;;17.80;85.90;;;;;;3530545;40;20046;-68
2021/07/11 03:51:08;;;;;;;12.10;9.18;;;17.80;85.80;;;;;;3531471;40;20073;-68
2021/07/11 03:53:36;;;;;;;10.02;8.75;;;17.80;85.60;;;;;;3529436;40;20039;-68
2021/07/11 03:56:03;;;;;;;12.60;10.15;;;17.80;85.70;;;;;;3532977;40;20043;-67
2021/07/11 03:58:34;;;;;;;13.60;8.98;;;17.80;85.80;;;;;;3530506;40;20049;-68
2021/07/11 04:01:00;;;;;;;14.13;9.75;;;17.80;85.20;;;;;;3531042;40;20042;-67
2021/07/11 04:03:28;;;;;;;12.65;9.48;;;17.90;85.70;;;;;;3533916;40;20038;-68
2021/07/11 04:05:55;;;;;;;11.45;9.05;;;17.80;85.60;;;;;;3530472;40;20059;-67
2021/07/11 04:08:22;;;;;;;11.63;9.50;;;17.90;85.60;;;;;;3532499;40;20645;-68
2021/07/11 04:10:49;;;;;;;11.68;9.73;;;17.90;86.10;;;;;;3530921;40;20031;-67
2021/07/11 04:13:16;;;;;;;11.85;9.80;;;17.90;86.30;;;;;;3530529;40;20034;-68
2021/07/11 04:15:47;;;;;;;10.55;8.77;;;17.90;86.00;;;;;;3531140;40;20032;-68
2021/07/11 04:18:15;;;;;;;11.93;9.50;;;18.00;86.60;;;;;;3532639;40;20042;-68
2021/07/11 04:20:47;;;;;;;11.60;9.27;;;18.00;85.60;;;;;;3532318;40;20594;-69
2021/07/11 04:23:13;;;;;;;9.77;8.73;;;18.00;85.10;;;;;;3531288;40;20637;-68
2021/07/11 04:25:41;;;;;;;14.95;9.90;;;18.00;85.70;;;;;;3531205;40;20795;-68
2021/07/11 04:28:09;;;;;;;13.20;9.70;;;18.00;85.10;;;;;;3532473;40;20827;-68
2021/07/11 04:30:36;;;;;;;13.00;9.68;;;18.10;85.10;;;;;;3531787;40;20023;-68
2021/07/11 04:33:02;;;;;;;14.52;9.48;;;18.20;85.00;;;;;;3532084;40;20033;-68
2021/07/11 04:35:29;;;;;;;10.82;9.18;;;18.10;84.90;;;;;;3533621;40;20402;-67
2021/07/11 04:37:56;;;;;;;12.80;10.18;;;18.10;84.30;;;;;;3532821;40;20794;-68
2021/07/11 04:40:22;;;;;;;10.82;9.57;;;18.10;84.90;;;;;;3534927;40;20038;-68
2021/07/11 04:42:47;;;;;;;13.35;9.30;;;18.20;84.80;;;;;;3530945;40;20050;-68
2021/07/11 04:45:14;;;;;;;15.48;9.13;;;18.20;84.40;;;;;;3537441;40;20065;-68
2021/07/11 04:47:39;;;;;;;10.63;9.38;;;18.20;84.80;;;;;;3534975;40;20038;-68
2021/07/11 04:50:07;;;;;;;12.00;9.63;;;18.30;84.30;;;;;;3531516;40;20173;-67
2021/07/11 04:52:33;;;;;;;12.43;9.02;;;18.20;85.30;;;;;;3535196;40;20042;-68
2021/07/11 04:54:58;;;;;;;13.93;9.65;;;18.30;85.20;;;;;;3527661;40;20030;-69
2021/07/11 04:57:25;;;;;;;11.48;9.40;;;18.30;85.80;;;;;;3534230;40;20545;-67
2021/07/11 04:59:51;;;;;;;11.02;9.20;;;18.40;85.80;;;;;;3534109;40;20042;-68
2021/07/11 05:02:17;;;;;;;11.20;9.20;;;18.40;85.90;;;;;;3537160;40;20079;-68
2021/07/11 05:04:42;;;;;;;11.95;9.35;;;18.50;85.50;;;;;;3534407;40;20042;-68
2021/07/11 05:07:08;;;;;;;14.27;8.95;;;18.50;85.30;;;;;;3534444;40;20129;-67
2021/07/11 05:09:34;;;;;;;10.82;8.95;;;18.50;85.60;;;;;;3531948;40;20023;-67
2021/07/11 05:11:59;;;;;;;11.43;9.13;;;18.60;85.90;;;;;;3534843;40;20027;-68
2021/07/11 05:14:25;;;;;;;9.77;8.77;;;18.60;84.30;;;;;;3535438;40;20031;-67
2021/07/11 05:16:50;;;;;;;9.80;8.80;;;18.70;84.20;;;;;;3536052;40;20053;-66
2021/07/11 05:19:16;;;;;;;14.63;8.82;;;18.80;83.60;;;;;;3535564;40;20795;-67
2021/07/11 05:21:42;;;;;;;10.63;9.25;;;18.90;84.20;;;;;;3533166;40;20047;-67
2021/07/11 05:24:07;;;;;;;9.88;8.60;;;18.90;85.10;;;;;;3535562;40;20053;-68
2021/07/11 05:26:33;;;;;;;9.73;8.70;;;18.90;83.80;;;;;;3534674;40;20047;-69
2021/07/11 05:28:59;;;;;;;13.52;9.20;;;19.10;83.80;;;;;;3538365;40;20049;-69
2021/07/11 05:31:25;;;;;;;13.57;8.85;;;19.20;84.00;;;;;;3535395;40;20447;-69
2021/07/11 05:33:50;;;;;;;9.18;8.27;;;19.50;83.60;;;;;;3532999;40;20139;-69
2021/07/11 05:36:16;;;;;;;8.80;7.90;;;19.70;83.10;;;;;;3527531;40;20751;-69
2021/07/11 05:38:42;;;;;;;9.73;8.10;;;19.80;83.00;;;;;;3533045;40;20038;-67
2021/07/11 05:41:09;;;;;;;11.43;8.25;;;19.80;82.60;;;;;;3535072;40;20320;-67
2021/07/11 05:43:35;;;;;;;8.57;7.32;;;19.90;82.00;;;;;;3534497;40;20042;-67
2021/07/11 05:46:01;;;;;;;8.65;7.75;;;20.00;81.80;;;;;;3533048;40;20038;-68
2021/07/11 05:48:27;;;;;;;11.00;8.32;;;20.00;81.70;;;;;;3533782;40;20079;-67
2021/07/11 05:50:53;;;;;;;10.10;8.20;;;20.00;80.10;;;;;;3533562;40;20736;-69
2021/07/11 05:53:19;;;;;;;8.93;7.20;;;20.10;80.90;;;;;;3533101;40;20050;-69
2021/07/11 05:55:45;;;;;;;9.05;7.05;;;20.10;80.80;;;;;;3527045;40;20110;-69
2021/07/11 05:58:11;;;;;;;9.95;7.43;;;20.20;79.00;;;;;;3531247;40;20042;-69
2021/07/11 06:00:37;;;;;;;10.95;7.25;;;20.20;79.40;;;;;;3532096;40;20494;-70
2021/07/11 06:03:03;;;;;;;10.10;7.20;;;20.30;77.80;;;;;;3531382;40;20035;-69
2021/07/11 06:05:29;;;;;;;7.75;6.57;;;20.30;77.40;;;;;;3530818;40;20427;-69
2021/07/11 06:07:54;;;;;;;8.85;6.85;;;20.40;77.80;;;;;;3532243;40;20101;-69
2021/07/11 06:10:20;;;;;;;9.93;6.78;;;20.50;79.40;;;;;;3532099;40;20023;-70
2021/07/11 06:12:46;;;;;;;8.63;6.35;;;20.60;78.60;;;;;;3530976;40;20043;-69
2021/07/11 06:15:12;;;;;;;12.40;7.20;;;20.70;78.00;;;;;;3529737;40;20042;-69
2021/07/11 06:17:38;;;;;;;7.78;6.97;;;20.80;77.90;;;;;;3531763;40;20862;-70
2021/07/11 06:20:08;;;;;;;6.95;6.13;;;20.90;79.20;;;;;;3532177;40;20062;-69
2021/07/11 06:22:34;;;;;;;7.28;6.32;;;21.10;78.20;;;;;;3532015;40;20134;-69
2021/07/11 06:25:06;;;;;;;7.03;6.32;;;21.10;78.40;;;;;;3531391;40;20841;-69
2021/07/11 06:27:33;;;;;;;7.30;6.57;;;21.20;76.30;;;;;;3532164;40;20070;-70
2021/07/11 06:29:59;;;;;;;7.97;6.50;;;21.30;75.90;;;;;;3530756;40;20027;-69
2021/07/11 06:32:25;;;;;;;6.10;5.50;;;21.40;75.90;;;;;;3533404;40;20030;-69
2021/07/11 06:34:50;;;;;;;10.25;5.82;;;21.50;75.50;;;;;;3531837;40;20027;-67
2021/07/11 06:37:16;;;;;;;6.32;5.72;;;21.50;73.40;;;;;;3531383;40;20034;-68
2021/07/11 06:39:42;;;;;;;6.07;5.32;;;21.70;74.50;;;;;;3530972;40;20055;-68
2021/07/11 06:42:08;;;;;;;5.65;5.15;;;21.70;73.60;;;;;;3534764;40;20572;-68
2021/07/11 06:44:33;;;;;;;7.88;5.93;;;21.80;73.20;;;;;;3532530;40;20034;-69
2021/07/11 06:46:59;;;;;;;6.22;5.68;;;22.00;73.40;;;;;;3532087;40;20071;-68
2021/07/11 06:49:25;;;;;;;6.32;5.55;;;22.10;73.60;;;;;;3533008;40;20042;-68
2021/07/11 06:51:51;;;;;;;5.25;4.75;;;22.20;74.20;;;;;;3526106;40;20031;-67
2021/07/11 06:54:16;;;;;;;6.35;5.30;;;22.30;70.50;;;;;;3531192;40;20624;-68
2021/07/11 06:56:42;;;;;;;6.75;5.13;;;22.40;70.90;;;;;;3530909;40;20653;-68
2021/07/11 06:59:07;;;;;;;6.05;5.35;;;22.40;70.70;;;;;;3530184;40;20071;-68
2021/07/11 07:01:33;;;;;;;5.15;4.63;;;22.50;72.30;;;;;;3531336;40;20433;-67
2021/07/11 07:03:59;;;;;;;5.22;4.53;;;22.60;71.50;;;;;;3530620;40;20031;-67
2021/07/11 07:06:24;;;;;;;6.18;4.43;;;22.70;70.90;;;;;;3532153;40;20062;-67
2021/07/11 07:08:50;;;;;;;5.07;4.18;;;22.80;70.40;;;;;;3532014;40;20031;-67
2021/07/11 07:11:16;;;;;;;5.03;4.45;;;22.90;69.80;;;;;;3528622;40;20030;-67
2021/07/11 07:13:41;;;;;;;4.53;4.13;;;23.00;69.00;;;;;;3529660;40;20026;-67
2021/07/11 07:16:07;;;;;;;6.10;4.38;;;23.10;69.20;;;;;;3532237;40;20042;-68
2021/07/11 07:18:33;;;;;;;4.43;3.97;;;23.20;69.20;;;;;;3532660;40;20031;-67
2021/07/11 07:20:58;;;;;;;4.45;4.05;;;23.30;68.60;;;;;;3530234;40;20038;-68
2021/07/11 07:23:24;;;;;;;4.10;3.70;;;23.40;68.80;;;;;;3532531;40;20034;-68
2021/07/11 07:25:50;;;;;;;4.63;3.40;;;23.40;68.30;;;;;;3532442;40;20027;-68
2021/07/11 07:28:15;;;;;;;4.20;3.80;;;23.50;66.40;;;;;;3531869;40;20139;-68
2021/07/11 07:30:41;;;;;;;3.63;3.33;;;23.60;67.70;;;;;;3532381;40;20523;-67
2021/07/11 07:33:09;;;;;;;4.72;3.97;;;23.60;65.90;;;;;;3532435;40;20588;-67
2021/07/11 07:35:34;;;;;;;3.97;3.58;;;23.70;66.20;;;;;;3531799;40;20074;-68
2021/07/11 07:38:00;;;;;;;4.70;3.70;;;23.80;64.70;;;;;;3532608;40;20444;-68
2021/07/11 07:40:26;;;;;;;4.25;3.85;;;23.90;66.20;;;;;;3521556;40;20107;-68
2021/07/11 07:42:51;;;;;;;3.60;3.30;;;24.10;66.00;;;;;;3531052;40;20038;-68
2021/07/11 07:45:18;;;;;;;3.95;3.38;;;24.20;65.70;;;;;;3532247;40;20059;-68
2021/07/11 07:47:44;;;;;;;3.78;3.47;;;24.20;64.70;;;;;;3531964;40;20046;-68
2021/07/11 07:50:12;;;;;;;5.03;3.58;;;24.30;63.40;;;;;;3529201;40;20050;-68
2021/07/11 07:52:38;;;;;;;3.95;3.65;;;24.30;64.50;;;;;;3530946;40;20066;-68
2021/07/11 07:55:05;;;;;;;4.28;3.22;;;24.40;64.20;;;;;;3533463;40;20982;-68
2021/07/11 07:57:31;;;;;;;3.55;3.25;;;24.50;64.30;;;;;;3531679;40;20035;-68
2021/07/11 07:59:56;;;;;;;4.70;3.58;;;24.60;62.70;;;;;;3534815;40;20387;-68
2021/07/11 08:02:23;;;;;;;5.97;3.50;;;24.60;61.60;;;;;;3531220;40;20026;-68
2021/07/11 08:04:49;;;;;;;3.60;3.30;;;24.70;62.90;;;;;;3532964;40;20038;-67
2021/07/11 08:07:15;;;;;;;7.22;3.10;;;24.70;60.30;;;;;;3532122;40;20025;-68
2021/07/11 08:09:41;;;;;;;3.67;3.38;;;24.80;61.10;;;;;;3530690;40;20388;-68
2021/07/11 08:12:07;;;;;;;4.90;3.20;;;24.90;62.20;;;;;;3535504;40;20030;-68
2021/07/11 08:14:33;;;;;;;3.80;3.50;;;25.00;62.20;;;;;;3523551;40;20071;-68
2021/07/11 08:16:59;;;;;;;3.80;2.95;;;25.10;62.60;;;;;;3532808;40;20034;-68
2021/07/11 08:19:25;;;;;;;4.85;3.20;;;25.10;60.10;;;;;;3530710;40;20041;-67
2021/07/11 08:21:53;;;;;;;3.38;2.90;;;25.20;59.80;;;;;;3532990;40;20027;-67
2021/07/11 08:24:22;;;;;;;3.08;2.78;;;25.30;59.40;;;;;;3533957;40;20038;-68
2021/07/11 08:26:48;;;;;;;3.00;2.70;;;25.40;58.90;;;;;;3533842;40;20041;-69
2021/07/11 08:29:14;;;;;;;4.15;2.97;;;25.50;60.00;;;;;;3532978;40;20049;-68
2021/07/11 08:31:39;;;;;;;6.05;2.60;;;25.60;58.50;;;;;;3533855;40;20031;-69
2021/07/11 08:34:05;;;;;;;3.58;3.28;;;25.60;57.30;;;;;;3531190;40;20047;-68
2021/07/11 08:36:31;;;;;;;5.43;2.97;;;25.70;58.10;;;;;;3531989;40;20034;-68
2021/07/11 08:38:58;;;;;;;3.72;3.00;;;25.70;58.50;;;;;;3533616;40;20027;-68
2021/07/11 08:41:25;;;;;;;4.70;3.95;;;25.90;55.50;;;;;;3532726;40;20026;-68
2021/07/11 08:43:55;;;;;;;3.85;2.42;;;25.90;54.40;;;;;;3533336;40;20085;-68
2021/07/11 08:46:21;;;;;;;3.55;2.00;;;25.90;51.40;;;;;;3533513;40;20042;-68
2021/07/11 08:48:48;;;;;;;3.30;2.17;;;26.10;52.00;;;;;;3534617;40;20030;-68
2021/07/11 08:51:15;;;;;;;2.40;2.20;;;26.20;50.20;;;;;;3532556;40;20062;-68
2021/07/11 08:53:41;;;;;;;2.92;2.63;;;26.50;50.70;;;;;;3532614;40;20046;-68
2021/07/11 08:56:21;;;;;;;2.35;2.15;;;26.70;51.90;;;;;;3532301;40;20031;-69
2021/07/11 08:58:50;;;;;;;3.17;2.20;;;26.80;49.50;;;;;;3535914;40;20499;-67
2021/07/11 09:01:20;;;;;;;3.10;2.80;;;26.70;49.70;;;;;;3529080;40;20056;-68
2021/07/11 09:04:05;;;;;;;3.67;3.05;;;26.60;51.60;;;;;;3530929;40;20043;-68
2021/07/11 09:06:45;;;;;;;3.65;2.42;;;26.60;51.50;;;;;;3532222;40;20066;-68
2021/07/11 09:09:20;;;;;;;5.75;2.67;;;26.70;51.40;;;;;;3531137;40;20043;-67
2021/07/11 09:11:48;;;;;;;4.85;3.10;;;26.80;50.80;;;;;;3533181;40;20611;-68
2021/07/11 09:14:19;;;;;;;3.22;2.90;;;26.80;51.20;;;;;;3531878;40;20018;-68
2021/07/11 09:16:46;;;;;;;6.82;3.72;;;26.80;51.10;;;;;;3532816;40;20038;-68
2021/07/11 09:19:36;;;;;;;4.35;2.95;;;26.80;52.40;;;;;;3534542;40;20389;-68
2021/07/11 09:22:11;;;;;;;3.42;2.78;;;26.70;52.20;;;;;;3534600;40;20399;-68
2021/07/11 09:24:45;;;;;;;4.07;3.00;;;26.70;51.30;;;;;;3532438;40;20329;-68
2021/07/11 09:27:16;;;;;;;4.45;3.08;;;26.60;52.10;;;;;;3533295;40;20039;-68
2021/07/11 09:29:44;;;;;;;3.47;2.92;;;26.60;52.70;;;;;;3534001;40;20027;-68
2021/07/11 09:32:22;;;;;;;4.95;3.00;;;26.80;52.90;;;;;;3535152;40;20034;-68
2021/07/11 09:34:48;;;;;;;5.65;2.92;;;27.00;52.70;;;;;;3534750;40;20721;-68
2021/07/11 09:37:16;;;;;;;5.25;3.17;;;27.10;52.70;;;;;;3535277;40;20034;-68
2021/07/11 09:39:55;;;;;;;5.63;3.28;;;27.10;51.50;;;;;;3524371;40;20030;-67
2021/07/11 09:42:24;;;;;;;4.43;3.50;;;27.10;51.00;;;;;;3533625;40;20159;-68
2021/07/11 09:44:50;;;;;;;4.78;4.03;;;27.10;50.40;;;;;;3531470;40;20144;-67
2021/07/11 09:47:19;;;;;;;5.70;3.47;;;27.10;50.30;;;;;;3523865;40;20037;-69
2021/07/11 09:50:02;;;;;;;4.03;2.13;;;27.10;50.80;;;;;;3533579;40;20042;-70
2021/07/11 09:52:29;;;;;;;3.10;2.30;;;27.10;49.40;;;;;;3537006;40;20047;-70
2021/07/11 09:55:06;;;;;;;3.75;2.10;;;27.10;52.00;;;;;;3536752;40;20097;-70
2021/07/11 09:57:38;;;;;;;2.50;2.13;;;27.10;50.50;;;;;;3534049;40;20055;-70
2021/07/11 10:00:08;;;;;;;4.28;2.42;;;27.20;49.50;;;;;;3526050;40;20057;-72
2021/07/11 10:02:36;;;;;;;3.90;2.85;;;27.20;50.60;;;;;;3530360;40;20460;-70
2021/07/11 10:05:03;;;;;;;4.15;2.28;;;27.30;48.80;;;;;;3534471;40;20401;-69
2021/07/11 10:07:31;;;;;;;4.50;2.33;;;27.30;50.00;;;;;;3532499;40;20050;-70
2021/07/11 10:09:56;;;;;;;3.70;2.75;;;27.50;49.60;;;;;;3534719;40;20042;-71
2021/07/11 10:12:22;;;;;;;4.95;3.03;;;27.60;48.40;;;;;;3532671;40;20156;-71
2021/07/11 10:14:48;;;;;;;3.90;3.03;;;27.70;48.10;;;;;;3532914;40;20046;-71
2021/07/11 10:17:16;;;;;;;3.78;2.28;;;27.70;47.90;;;;;;3536817;40;20038;-70
2021/07/11 10:19:49;;;;;;;5.13;2.75;;;27.80;49.30;;;;;;3534275;40;20034;-71
2021/07/11 10:22:16;;;;;;;2.97;2.63;;;27.70;47.20;;;;;;3532274;40;20079;-71
2021/07/11 10:24:46;;;;;;;3.95;2.65;;;27.70;45.90;;;;;;3533122;40;20034;-72
2021/07/11 10:27:21;;;;;;;4.45;2.58;;;27.60;46.90;;;;;;3533585;40;20037;-75
2021/07/11 10:29:49;;;;;;;2.90;2.20;;;27.60;47.80;;;;;;3535246;40;20019;-69
2021/07/11 10:32:30;;;;;;;2.17;1.98;;;27.70;46.70;;;;;;3532212;40;20031;-70
2021/07/11 10:35:19;;;;;;;3.10;2.80;;;27.70;48.80;;;;;;3534122;40;20043;-69
2021/07/11 10:37:51;;;;;;;3.15;2.85;;;27.80;46.30;;;;;;3533818;40;20047;-69
2021/07/11 10:40:20;;;;;;;3.78;2.60;;;27.90;47.20;;;;;;3531941;40;20038;-69
2021/07/11 10:42:48;;;;;;;5.80;3.45;;;27.80;47.30;;;;;;3532696;40;20647;-69
2021/07/11 10:45:15;;;;;;;3.53;2.88;;;27.80;46.70;;;;;;3533104;40;20418;-69
2021/07/11 10:47:41;;;;;;;4.03;2.40;;;27.80;45.10;;;;;;3533547;40;20027;-70
2021/07/11 10:50:28;;;;;;;3.10;2.30;;;27.70;46.80;;;;;;3533846;40;20102;-71
2021/07/11 10:52:56;;;;;;;2.83;1.95;;;27.70;46.10;;;;;;3532294;40;20082;-70
2021/07/11 10:55:23;;;;;;;2.45;2.25;;;27.70;47.80;;;;;;3533132;40;20031;-70
2021/07/11 10:57:49;;;;;;;3.03;2.42;;;27.70;47.60;;;;;;3533873;40;20039;-72
2021/07/11 11:00:28;;;;;;;2.08;1.88;;;27.80;48.30;;;;;;3534521;40;20390;-68
2021/07/11 11:02:55;;;;;;;1.83;1.73;;;28.00;46.00;;;;;;3533767;40;20431;-69
2021/07/11 11:05:26;;;;;;;4.13;1.70;;;28.10;46.50;;;;;;3532488;40;20041;-69
2021/07/11 11:07:55;;;;;;;1.98;1.73;;;28.20;44.90;;;;;;3534499;40;20029;-72
2021/07/11 11:10:26;;;;;;;3.08;1.90;;;28.20;46.00;;;;;;3526563;40;20035;-68
2021/07/11 11:13:19;;;;;;;2.03;1.88;;;28.20;44.70;;;;;;3524648;40;20127;-67
2021/07/11 11:15:54;;;;;;;2.47;1.90;;;28.20;46.90;;;;;;3525344;40;20094;-68
2021/07/11 11:18:35;;;;;;;2.90;1.93;;;28.30;45.80;;;;;;3532064;40;20031;-68
2021/07/11 11:21:05;;;;;;;2.03;1.65;;;28.40;43.90;;;;;;3531398;40;20586;-68
2021/07/11 11:23:39;;;;;;;1.75;1.65;;;28.30;44.70;;;;;;3528586;40;20036;-67
2021/07/11 11:26:07;;;;;;;3.03;2.10;;;28.40;45.00;;;;;;3531229;40;20895;-69
2021/07/11 11:28:34;;;;;;;3.10;2.17;;;28.50;43.90;;;;;;3531804;40;20026;-68
2021/07/11 11:36:35;;;;;;;4.05;1.92;;;28.60;44.90;;;;;;3555717;40;20060;-67
2021/07/11 11:39:34;;;;;;;2.85;2.08;;;28.70;43.40;;;;;;3546165;40;20045;-67
2021/07/11 11:42:03;;;;;;;2.10;1.73;;;28.80;43.50;;;;;;3556093;40;20044;-67
2021/07/11 11:44:29;;;;;;;2.22;2.03;;;28.80;44.20;;;;;;3549519;40;20029;-68
2021/07/11 11:46:58;;;;;;;2.25;1.80;;;28.70;45.00;;;;;;3547171;40;20030;-67
2021/07/11 11:49:26;;;;;;;3.95;2.30;;;28.60;45.80;;;;;;3555040;40;20041;-67
2021/07/11 11:51:57;;;;;;;2.00;1.80;;;28.50;44.60;;;;;;3554321;40;20062;-67
2021/07/11 11:54:40;;;;;;;2.42;2.03;;;28.30;45.30;;;;;;3556129;40;20036;-67
2021/07/11 11:57:08;;;;;;;3.35;2.15;;;28.20;45.30;;;;;;3547582;40;20080;-67
2021/07/11 11:59:34;;;;;;;3.20;1.63;;;27.90;45.40;;;;;;3555790;40;20042;-68
2021/07/11 12:02:04;;;;;;;2.50;2.30;;;27.70;46.40;;;;;;3557378;40;20068;-67
2021/07/11 12:04:31;;;;;;;2.33;2.10;;;27.60;45.40;;;;;;3554063;40;20048;-67
2021/07/11 12:06:58;;;;;;;1.90;1.80;;;27.60;46.60;;;;;;3553578;40;20065;-67
2021/07/11 12:09:27;;;;;;;3.17;1.70;;;27.70;46.90;;;;;;3557206;40;20058;-67
2021/07/11 12:12:06;;;;;;;3.00;2.05;;;27.60;47.40;;;;;;3554352;40;20062;-67
2021/07/11 12:14:34;;;;;;;2.97;1.70;;;27.60;45.70;;;;;;3555500;40;20473;-68
2021/07/11 12:17:06;;;;;;;2.05;1.85;;;27.40;46.40;;;;;;3554416;40;20021;-67
2021/07/11 12:19:52;;;;;;;1.80;1.70;;;27.30;42.50;;;;;;3555381;40;20044;-67
2021/07/11 12:22:21;;;;;;;2.72;1.70;;;27.40;42.80;;;;;;3553851;40;20140;-68
2021/07/11 12:27:46;;;;;;;1.65;1.55;;;27.40;44.20;;;;;;3557491;40;20037;-67
2021/07/11 12:30:14;;;;;;;4.70;1.48;;;27.50;46.00;;;;;;3553811;40;20029;-67
2021/07/11 12:32:48;;;;;;;4.68;1.73;;;27.70;46.00;;;;;;3555470;40;20443;-66
2021/07/11 12:35:16;;;;;;;1.65;1.55;;;27.80;45.00;;;;;;3543665;40;20829;-67
2021/07/11 12:37:52;;;;;;;2.05;1.75;;;27.90;45.70;;;;;;3554473;40;20509;-66
2021/07/11 12:40:20;;;;;;;6.57;1.95;;;27.90;44.20;;;;;;3552338;40;20617;-66
2021/07/11 12:42:46;;;;;;;2.70;2.35;;;28.00;42.80;;;;;;3553336;40;20617;-66
2021/07/11 12:45:21;;;;;;;2.33;1.95;;;28.10;43.70;;;;;;3554325;40;20041;-66
2021/07/11 12:47:51;;;;;;;3.30;3.00;;;28.00;42.00;;;;;;3555193;40;20037;-66
2021/07/11 12:50:29;;;;;;;2.88;2.40;;;28.10;45.00;;;;;;3553418;40;20403;-66
2021/07/11 12:52:55;;;;;;;2.50;2.30;;;28.00;43.20;;;;;;3545185;40;20045;-66
2021/07/11 12:55:22;;;;;;;2.45;2.25;;;27.90;44.50;;;;;;3556506;40;20049;-66
2021/07/11 12:57:48;;;;;;;3.75;2.53;;;28.00;44.10;;;;;;3558566;40;20127;-66